createdAt,value
2019-05-26T00:00:12.607Z,14.10
2019-05-26T00:02:41.909Z,14.00
2019-05-26T00:05:11.672Z,14.00
2019-05-26T00:07:41.002Z,13.90
2019-05-26T00:10:10.712Z,13.90
2019-05-26T00:12:40.114Z,13.80
2019-05-26T00:15:10.667Z,13.70
2019-05-26T00:17:40.009Z,13.70
2019-05-26T00:20:09.858Z,13.80
2019-05-26T00:22:39.176Z,13.80
2019-05-26T00:25:09.299Z,13.90
2019-05-26T00:27:38.972Z,13.90
2019-05-26T00:30:10.081Z,13.80
2019-05-26T00:32:39.409Z,13.70
2019-05-26T00:35:09.957Z,13.60
2019-05-26T00:37:49.018Z,13.60
2019-05-26T00:40:11.509Z,13.60
2019-05-26T00:42:41.117Z,13.40
2019-05-26T00:45:12.234Z,13.30
2019-05-26T00:47:41.958Z,13.30
2019-05-26T00:50:12.901Z,13.40
2019-05-26T00:52:42.602Z,13.40
2019-05-26T00:55:12.076Z,13.50
2019-05-26T00:57:41.451Z,13.40
2019-05-26T01:00:12.375Z,13.30
2019-05-26T01:02:42.277Z,13.30
2019-05-26T01:05:13.720Z,13.30
2019-05-26T01:07:43.057Z,13.20
2019-05-26T01:10:15.752Z,13.20
2019-05-26T01:12:45.408Z,13.10
2019-05-26T01:15:15.321Z,13.00
2019-05-26T01:17:44.636Z,13.10
2019-05-26T01:20:14.019Z,12.80
2019-05-26T01:22:43.641Z,12.70
2019-05-26T01:25:13.178Z,12.70
2019-05-26T01:27:42.481Z,12.70
2019-05-26T01:30:12.036Z,12.80
2019-05-26T01:32:41.750Z,12.80
2019-05-26T01:35:11.669Z,12.70
2019-05-26T01:37:42.681Z,12.70
2019-05-26T01:40:12.759Z,12.70
2019-05-26T01:42:42.065Z,12.70
2019-05-26T01:45:11.517Z,12.70
2019-05-26T01:47:40.821Z,12.60
2019-05-26T01:50:10.549Z,12.70
2019-05-26T01:52:39.848Z,12.50
2019-05-26T01:55:09.669Z,12.60
2019-05-26T01:57:39.044Z,12.60
2019-05-26T02:00:10.906Z,12.60
2019-05-26T02:02:40.460Z,12.50
2019-05-26T02:05:09.977Z,12.50
2019-05-26T02:07:39.239Z,12.50
2019-05-26T02:10:09.252Z,12.40
2019-05-26T02:12:38.556Z,12.40
2019-05-26T02:15:09.376Z,12.40
2019-05-26T02:17:38.981Z,12.40
2019-05-26T02:20:10.526Z,12.40
2019-05-26T02:22:39.837Z,12.50
2019-05-26T02:25:10.275Z,12.60
2019-05-26T02:27:39.589Z,12.60
2019-05-26T02:30:11.387Z,12.60
2019-05-26T02:32:40.718Z,12.70
2019-05-26T02:35:11.313Z,12.70
2019-05-26T02:37:40.954Z,12.60
2019-05-26T02:40:11.491Z,12.70
2019-05-26T02:42:40.800Z,12.70
2019-05-26T02:45:14.901Z,12.50
2019-05-26T02:47:46.615Z,12.50
2019-05-26T02:50:17.561Z,12.40
2019-05-26T02:52:49.537Z,12.40
2019-05-26T02:55:19.463Z,12.40
2019-05-26T02:57:48.762Z,12.30
2019-05-26T03:00:25.518Z,12.20
2019-05-26T03:02:55.268Z,12.30
2019-05-26T03:05:24.946Z,12.40
2019-05-26T03:07:56.077Z,12.40
2019-05-26T03:10:25.370Z,12.30
2019-05-26T03:12:56.490Z,12.30
2019-05-26T03:15:25.810Z,12.30
2019-05-26T03:17:57.229Z,12.30
2019-05-26T03:20:26.574Z,12.30
2019-05-26T03:22:58.377Z,12.20
2019-05-26T03:25:29.523Z,12.20
2019-05-26T03:27:59.128Z,12.20
2019-05-26T03:30:28.439Z,12.10
2019-05-26T03:32:57.744Z,12.20
2019-05-26T03:35:27.327Z,12.20
2019-05-26T03:37:56.657Z,12.20
2019-05-26T03:40:25.977Z,12.20
2019-05-26T03:42:55.350Z,12.10
2019-05-26T03:45:44.290Z,12.10
2019-05-26T03:48:13.593Z,12.10
2019-05-26T03:50:42.914Z,12.00
2019-05-26T03:53:12.227Z,12.00
2019-05-26T03:55:41.615Z,12.00
2019-05-26T03:58:11.206Z,12.10
2019-05-26T04:00:40.795Z,12.10
2019-05-26T04:03:10.112Z,12.10
2019-05-26T04:05:39.414Z,12.20
2019-05-26T04:08:09.031Z,12.20
2019-05-26T04:10:38.348Z,12.20
2019-05-26T04:13:07.707Z,12.20
2019-05-26T04:15:37.029Z,12.10
2019-05-26T04:18:23.440Z,12.10
2019-05-26T04:20:53.025Z,12.10
2019-05-26T04:23:27.643Z,12.10
2019-05-26T04:25:57.019Z,12.10
2019-05-26T04:28:26.665Z,12.20
2019-05-26T04:30:55.975Z,12.20
2019-05-26T04:33:25.558Z,12.20
2019-05-26T04:35:54.878Z,12.10
2019-05-26T04:38:24.213Z,12.20
2019-05-26T04:40:53.770Z,12.10
2019-05-26T04:43:23.319Z,12.10
2019-05-26T04:45:52.715Z,12.10
2019-05-26T04:48:22.052Z,12.20
2019-05-26T04:50:51.685Z,12.20
2019-05-26T04:53:24.555Z,12.20
2019-05-26T04:55:53.990Z,12.20
2019-05-26T04:58:23.428Z,12.20
2019-05-26T05:00:53.161Z,12.30
2019-05-26T05:03:22.480Z,12.40
2019-05-26T05:05:55.490Z,12.40
2019-05-26T05:08:25.075Z,12.50
2019-05-26T05:10:54.695Z,12.50
2019-05-26T05:13:25.035Z,12.70
2019-05-26T05:15:54.414Z,12.70
2019-05-26T05:18:23.727Z,12.60
2019-05-26T05:20:53.062Z,12.80
2019-05-26T05:23:22.363Z,12.70
2019-05-26T05:25:51.676Z,12.70
2019-05-26T05:28:21.318Z,12.70
2019-05-26T05:30:50.632Z,12.80
2019-05-26T05:33:20.232Z,12.80
2019-05-26T05:35:49.837Z,12.80
2019-05-26T05:38:19.157Z,12.90
2019-05-26T05:40:58.830Z,12.90
2019-05-26T05:43:19.518Z,13.00
2019-05-26T05:45:48.891Z,13.10
2019-05-26T05:48:18.518Z,13.10
2019-05-26T05:50:47.799Z,13.10
2019-05-26T05:53:17.125Z,13.20
2019-05-26T05:55:49.406Z,13.30
2019-05-26T05:58:18.696Z,13.30
2019-05-26T06:00:48.464Z,13.40
2019-05-26T06:03:18.886Z,13.40
2019-05-26T06:05:48.467Z,13.60
2019-05-26T06:08:18.305Z,13.70
2019-05-26T06:10:47.649Z,13.80
2019-05-26T06:13:16.999Z,13.80
2019-05-26T06:15:46.312Z,13.80
2019-05-26T06:18:15.630Z,13.80
2019-05-26T06:20:44.966Z,13.90
2019-05-26T06:23:14.284Z,14.00
2019-05-26T06:25:43.936Z,14.00
2019-05-26T06:28:13.258Z,14.10
2019-05-26T06:30:42.566Z,14.20
2019-05-26T06:33:11.883Z,14.30
2019-05-26T06:35:41.191Z,14.30
2019-05-26T06:38:10.826Z,14.20
2019-05-26T06:40:40.136Z,14.20
2019-05-26T06:43:09.477Z,14.30
2019-05-26T06:45:38.789Z,14.30
2019-05-26T06:48:08.613Z,14.40
2019-05-26T06:50:37.931Z,14.50
2019-05-26T06:53:07.247Z,14.60
2019-05-26T06:55:39.230Z,14.70
2019-05-26T06:58:08.579Z,14.70
2019-05-26T07:00:37.879Z,14.70
2019-05-26T07:03:07.243Z,14.70
2019-05-26T07:05:36.551Z,14.80
2019-05-26T07:08:05.871Z,14.80
2019-05-26T07:10:35.515Z,14.90
2019-05-26T07:13:04.898Z,15.00
2019-05-26T07:15:34.443Z,15.10
2019-05-26T07:18:03.829Z,15.20
2019-05-26T07:20:33.299Z,15.20
2019-05-26T07:23:02.802Z,15.30
2019-05-26T07:25:32.233Z,15.40
2019-05-26T07:28:01.564Z,15.40
2019-05-26T07:30:31.264Z,15.50
2019-05-26T07:33:00.573Z,15.70
2019-05-26T07:35:32.911Z,15.90
2019-05-26T07:38:00.923Z,16.10
2019-05-26T07:40:30.235Z,16.10
2019-05-26T07:42:59.791Z,16.30
2019-05-26T07:45:29.189Z,16.50
2019-05-26T07:47:58.487Z,16.70
2019-05-26T07:50:28.139Z,16.80
2019-05-26T07:52:57.447Z,16.80
2019-05-26T07:55:26.798Z,16.80
2019-05-26T07:57:56.129Z,16.90
2019-05-26T08:00:25.866Z,16.90
2019-05-26T08:02:55.427Z,17.10
2019-05-26T08:05:24.734Z,17.10
2019-05-26T08:08:09.558Z,17.20
2019-05-26T08:10:25.108Z,17.20
2019-05-26T08:12:54.454Z,17.20
2019-05-26T08:15:24.072Z,17.20
2019-05-26T08:17:53.422Z,17.30
2019-05-26T08:20:23.161Z,17.30
2019-05-26T08:22:52.463Z,17.40
2019-05-26T08:25:21.772Z,17.50
2019-05-26T08:27:51.079Z,17.50
2019-05-26T08:30:20.859Z,17.50
2019-05-26T08:32:50.214Z,17.60
2019-05-26T08:35:19.521Z,17.70
2019-05-26T08:37:49.203Z,17.70
2019-05-26T08:40:19.179Z,17.60
2019-05-26T08:42:51.010Z,17.70
2019-05-26T08:45:23.025Z,17.80
2019-05-26T08:47:53.115Z,17.80
2019-05-26T08:50:23.194Z,17.80
2019-05-26T08:52:52.479Z,17.90
2019-05-26T08:55:22.802Z,18.00
2019-05-26T08:57:52.101Z,17.90
2019-05-26T09:00:24.135Z,17.90
2019-05-26T09:02:53.442Z,17.80
2019-05-26T09:05:23.405Z,17.80
2019-05-26T09:07:52.697Z,17.90
2019-05-26T09:10:22.394Z,17.90
2019-05-26T09:13:00.954Z,18.00
2019-05-26T09:15:22.723Z,18.10
2019-05-26T09:17:52.338Z,18.20
2019-05-26T09:20:24.090Z,18.20
2019-05-26T09:22:53.408Z,18.20
2019-05-26T09:25:22.732Z,18.20
2019-05-26T09:27:52.045Z,18.20
2019-05-26T09:30:21.557Z,18.20
2019-05-26T09:32:50.861Z,18.20
2019-05-26T09:35:20.232Z,18.30
2019-05-26T09:37:49.533Z,18.40
2019-05-26T09:40:19.633Z,18.50
2019-05-26T09:42:49.237Z,18.60
2019-05-26T09:45:18.889Z,18.60
2019-05-26T09:47:48.194Z,18.60
2019-05-26T09:50:18.431Z,18.60
2019-05-26T09:52:48.114Z,18.60
2019-05-26T09:55:18.812Z,18.60
2019-05-26T09:57:48.102Z,18.60
2019-05-26T10:00:18.759Z,18.70
2019-05-26T10:02:48.064Z,18.70
2019-05-26T10:05:17.591Z,18.80
2019-05-26T10:07:46.899Z,19.00
2019-05-26T10:10:17.439Z,19.20
2019-05-26T10:12:46.751Z,19.30
2019-05-26T10:15:19.785Z,19.30
2019-05-26T10:17:49.128Z,19.40
2019-05-26T10:20:19.497Z,19.40
2019-05-26T10:22:48.800Z,19.30
2019-05-26T10:25:18.129Z,19.40
2019-05-26T10:27:47.467Z,19.50
2019-05-26T10:30:17.705Z,19.60
2019-05-26T10:32:47.043Z,19.70
2019-05-26T10:35:16.923Z,19.90
2019-05-26T10:37:46.222Z,20.00
2019-05-26T10:40:20.608Z,20.00
2019-05-26T10:42:49.927Z,19.90
2019-05-26T10:45:20.337Z,20.10
2019-05-26T10:47:49.735Z,20.00
2019-05-26T10:50:19.271Z,19.80
2019-05-26T10:52:48.882Z,19.80
2019-05-26T10:55:18.595Z,20.00
2019-05-26T10:57:47.937Z,20.00
2019-05-26T11:00:18.441Z,20.10
2019-05-26T11:02:47.753Z,20.30
2019-05-26T11:05:17.993Z,20.30
2019-05-26T11:07:47.305Z,20.20
2019-05-26T11:10:17.413Z,20.30
2019-05-26T11:12:47.087Z,20.40
2019-05-26T11:15:16.806Z,20.30
2019-05-26T11:17:46.387Z,20.30
2019-05-26T11:20:17.005Z,20.40
2019-05-26T11:22:46.342Z,20.40
2019-05-26T11:25:16.837Z,20.50
2019-05-26T11:27:46.205Z,20.70
2019-05-26T11:30:17.504Z,20.50
2019-05-26T11:32:46.844Z,20.50
2019-05-26T11:35:16.822Z,20.30
2019-05-26T11:37:46.433Z,20.40
2019-05-26T11:40:17.548Z,20.40
2019-05-26T11:42:46.890Z,20.30
2019-05-26T11:45:17.902Z,20.30
2019-05-26T11:47:47.520Z,20.40
2019-05-26T11:50:17.674Z,20.40
2019-05-26T11:52:47.349Z,20.30
2019-05-26T11:55:17.212Z,20.20
2019-05-26T11:57:46.545Z,20.30
2019-05-26T12:00:17.734Z,20.30
2019-05-26T12:02:47.500Z,20.30
2019-05-26T12:05:18.113Z,20.50
2019-05-26T12:07:47.599Z,20.70
2019-05-26T12:10:17.262Z,20.50
2019-05-26T12:12:46.582Z,20.60
2019-05-26T12:15:17.699Z,20.80
2019-05-26T12:17:47.050Z,20.70
2019-05-26T12:20:16.871Z,20.70
2019-05-26T12:22:46.184Z,20.80
2019-05-26T12:25:16.573Z,20.80
2019-05-26T12:27:46.152Z,20.70
2019-05-26T12:30:17.031Z,20.80
2019-05-26T12:32:46.352Z,21.00
2019-05-26T12:35:15.759Z,21.20
2019-05-26T12:37:48.251Z,21.10
2019-05-26T12:40:17.198Z,21.00
2019-05-26T12:42:46.897Z,21.10
2019-05-26T12:45:18.206Z,21.30
2019-05-26T12:47:47.496Z,21.40
2019-05-26T12:50:18.548Z,21.10
2019-05-26T12:52:47.870Z,21.00
2019-05-26T12:55:17.365Z,20.90
2019-05-26T12:57:46.675Z,21.00
2019-05-26T13:00:16.549Z,21.10
2019-05-26T13:02:46.284Z,21.30
2019-05-26T13:05:16.719Z,21.30
2019-05-26T13:07:46.033Z,21.40
2019-05-26T13:10:16.424Z,21.30
2019-05-26T13:12:45.800Z,21.20
2019-05-26T13:15:16.323Z,21.30
2019-05-26T13:17:45.964Z,21.20
2019-05-26T13:20:18.300Z,21.40
2019-05-26T13:22:47.605Z,21.50
2019-05-26T13:25:17.959Z,21.40
2019-05-26T13:27:47.254Z,21.40
2019-05-26T13:30:27.104Z,21.40
2019-05-26T13:32:56.717Z,21.30
2019-05-26T13:35:26.096Z,21.30
2019-05-26T13:37:55.389Z,21.30
2019-05-26T13:40:24.735Z,21.40
2019-05-26T13:42:54.053Z,21.40
2019-05-26T13:45:23.711Z,21.40
2019-05-26T13:47:53.437Z,21.50
2019-05-26T13:50:23.062Z,21.50
2019-05-26T13:52:52.412Z,21.40
2019-05-26T13:55:22.465Z,21.20
2019-05-26T13:57:51.799Z,21.10
2019-05-26T14:00:22.755Z,21.20
2019-05-26T14:02:52.056Z,21.30
2019-05-26T14:05:22.099Z,21.30
2019-05-26T14:07:51.509Z,21.40
2019-05-26T14:10:35.989Z,21.40
2019-05-26T14:13:07.092Z,21.50
2019-05-26T14:15:38.447Z,21.30
2019-05-26T14:18:08.084Z,21.50
2019-05-26T14:20:41.518Z,21.40
2019-05-26T14:23:11.676Z,21.40
2019-05-26T14:25:40.977Z,21.30
2019-05-26T14:28:10.299Z,21.10
2019-05-26T14:30:40.051Z,21.10
2019-05-26T14:33:09.472Z,21.10
2019-05-26T14:35:38.782Z,21.00
2019-05-26T14:38:08.093Z,21.00
2019-05-26T14:40:37.414Z,20.90
2019-05-26T14:43:06.768Z,21.10
2019-05-26T14:45:52.035Z,21.10
2019-05-26T14:48:07.758Z,21.10
2019-05-26T14:50:40.421Z,21.00
2019-05-26T14:53:08.118Z,21.00
2019-05-26T14:55:37.414Z,21.00
2019-05-26T14:58:15.844Z,21.00
2019-05-26T15:00:38.050Z,20.90
2019-05-26T15:03:07.413Z,20.90
2019-05-26T15:05:36.758Z,20.90
2019-05-26T15:08:06.078Z,20.80
2019-05-26T15:10:35.706Z,20.60
2019-05-26T15:13:05.078Z,20.50
2019-05-26T15:15:35.190Z,20.50
2019-05-26T15:18:04.982Z,20.50
2019-05-26T15:20:34.412Z,20.60
2019-05-26T15:23:03.723Z,20.50
2019-05-26T15:25:33.020Z,20.60
2019-05-26T15:28:03.992Z,20.50
2019-05-26T15:30:33.666Z,20.50
2019-05-26T15:33:02.967Z,20.50
2019-05-26T15:35:32.268Z,20.40
2019-05-26T15:38:01.609Z,20.40
2019-05-26T15:40:31.209Z,20.40
2019-05-26T15:43:00.509Z,20.40
2019-05-26T15:45:29.808Z,20.40
2019-05-26T15:47:59.109Z,20.30
2019-05-26T15:50:28.479Z,20.30
2019-05-26T15:52:58.079Z,20.30
2019-05-26T15:55:27.450Z,20.20
2019-05-26T15:57:56.704Z,20.20
2019-05-26T16:00:26.126Z,20.20
2019-05-26T16:02:55.778Z,20.20
2019-05-26T16:05:25.109Z,20.20
2019-05-26T16:07:54.690Z,20.20
2019-05-26T16:10:24.002Z,20.30
2019-05-26T16:12:53.333Z,20.20
2019-05-26T16:15:23.017Z,20.20
2019-05-26T16:17:52.351Z,20.20
2019-05-26T16:20:21.810Z,20.20
2019-05-26T16:22:51.407Z,20.20
2019-05-26T16:25:21.070Z,20.20
2019-05-26T16:27:50.381Z,20.20
2019-05-26T16:30:19.868Z,20.20
2019-05-26T16:32:49.590Z,20.30
2019-05-26T16:35:19.272Z,20.40
2019-05-26T16:37:48.858Z,20.50
2019-05-26T16:40:18.205Z,20.60
2019-05-26T16:42:47.759Z,20.60
2019-05-26T16:45:17.383Z,20.60
2019-05-26T16:47:46.986Z,20.50
2019-05-26T16:50:16.356Z,20.50
2019-05-26T16:52:45.981Z,20.40
2019-05-26T16:55:16.154Z,20.30
2019-05-26T16:57:45.433Z,20.30
2019-05-26T17:00:15.946Z,20.50
2019-05-26T17:02:45.552Z,20.80
2019-05-26T17:05:15.625Z,21.30
2019-05-26T17:07:44.953Z,21.60
2019-05-26T17:10:14.697Z,21.90
2019-05-26T17:12:43.990Z,21.90
2019-05-26T17:15:16.142Z,22.00
2019-05-26T17:17:45.427Z,22.10
2019-05-26T17:20:15.631Z,21.70
2019-05-26T17:22:44.972Z,21.70
2019-05-26T17:25:14.943Z,21.80
2019-05-26T17:27:44.246Z,21.80
2019-05-26T17:30:14.631Z,22.00
2019-05-26T17:32:43.973Z,21.90
2019-05-26T17:35:14.439Z,21.90
2019-05-26T17:37:43.774Z,21.80
2019-05-26T17:40:13.616Z,21.60
2019-05-26T17:42:42.910Z,21.40
2019-05-26T17:45:13.158Z,21.70
2019-05-26T17:47:42.866Z,21.80
2019-05-26T17:50:13.214Z,21.80
2019-05-26T17:52:42.547Z,21.90
2019-05-26T17:55:12.312Z,22.10
2019-05-26T17:57:41.618Z,22.20
2019-05-26T18:00:13.938Z,22.60
2019-05-26T18:02:43.241Z,22.60
2019-05-26T18:05:13.710Z,22.40
2019-05-26T18:07:43.031Z,22.50
2019-05-26T18:10:13.816Z,22.60
2019-05-26T18:12:43.461Z,22.50
2019-05-26T18:15:13.254Z,22.40
2019-05-26T18:17:47.278Z,22.10
2019-05-26T18:20:14.549Z,22.00
2019-05-26T18:22:43.899Z,21.90
2019-05-26T18:25:13.735Z,21.90
2019-05-26T18:27:43.050Z,21.70
2019-05-26T18:30:15.060Z,21.80
2019-05-26T18:32:44.732Z,21.90
2019-05-26T18:35:15.358Z,21.70
2019-05-26T18:37:44.636Z,21.70
2019-05-26T18:40:14.715Z,21.70
2019-05-26T18:42:44.030Z,21.40
2019-05-26T18:45:14.046Z,21.20
2019-05-26T18:47:43.348Z,21.00
2019-05-26T18:50:14.074Z,20.60
2019-05-26T18:52:43.374Z,20.40
2019-05-26T18:55:13.073Z,20.30
2019-05-26T18:57:42.373Z,20.20
2019-05-26T19:00:15.576Z,20.10
2019-05-26T19:02:44.923Z,20.00
2019-05-26T19:05:15.425Z,20.00
2019-05-26T19:07:44.758Z,19.90
2019-05-26T19:10:14.876Z,19.90
2019-05-26T19:12:44.176Z,19.80
2019-05-26T19:15:13.771Z,19.60
2019-05-26T19:17:43.106Z,19.50
2019-05-26T19:20:16.779Z,19.50
2019-05-26T19:22:44.492Z,19.60
2019-05-26T19:25:19.949Z,19.50
2019-05-26T19:27:49.298Z,19.50
2019-05-26T19:30:19.017Z,19.40
2019-05-26T19:32:48.388Z,19.30
2019-05-26T19:35:17.678Z,19.40
2019-05-26T19:37:49.641Z,19.30
2019-05-26T19:40:20.509Z,19.20
2019-05-26T19:42:49.843Z,19.20
2019-05-26T19:45:19.211Z,19.10
2019-05-26T19:47:48.815Z,19.10
2019-05-26T19:50:18.531Z,19.00
2019-05-26T19:52:49.900Z,19.10
2019-05-26T19:55:18.853Z,19.00
2019-05-26T19:57:48.601Z,18.90
2019-05-26T20:00:19.043Z,18.90
2019-05-26T20:02:48.391Z,18.80
2019-05-26T20:05:17.844Z,18.60
2019-05-26T20:07:47.157Z,18.60
2019-05-26T20:10:17.516Z,18.60
2019-05-26T20:12:46.832Z,18.50
2019-05-26T20:15:17.047Z,18.40
2019-05-26T20:17:46.644Z,18.30
2019-05-26T20:20:16.461Z,18.40
2019-05-26T20:22:46.083Z,18.30
2019-05-26T20:25:18.858Z,18.30
2019-05-26T20:27:48.458Z,18.20
2019-05-26T20:30:21.162Z,18.10
2019-05-26T20:32:48.982Z,18.00
2019-05-26T20:35:18.816Z,18.00
2019-05-26T20:37:48.126Z,18.00
2019-05-26T20:40:17.959Z,17.90
2019-05-26T20:42:47.522Z,17.90
2019-05-26T20:45:17.864Z,17.90
2019-05-26T20:47:47.209Z,18.00
2019-05-26T20:50:28.577Z,17.90
2019-05-26T20:52:48.437Z,17.80
2019-05-26T20:55:18.412Z,17.70
2019-05-26T20:57:48.213Z,17.70
2019-05-26T21:00:19.717Z,17.60
2019-05-26T21:02:49.034Z,17.60
2019-05-26T21:05:19.124Z,17.50
2019-05-26T21:07:48.720Z,17.50
2019-05-26T21:10:18.155Z,17.40
2019-05-26T21:12:47.439Z,17.30
2019-05-26T21:15:17.350Z,17.30
2019-05-26T21:17:46.710Z,17.30
2019-05-26T21:20:17.691Z,17.30
2019-05-26T21:22:47.012Z,17.20
2019-05-26T21:25:18.160Z,17.10
2019-05-26T21:27:47.461Z,17.10
2019-05-26T21:30:18.793Z,17.10
2019-05-26T21:32:48.183Z,17.00
2019-05-26T21:35:17.676Z,17.00
2019-05-26T21:37:46.952Z,16.90
2019-05-26T21:40:16.731Z,16.90
2019-05-26T21:42:46.052Z,16.80
2019-05-26T21:45:15.432Z,16.80
2019-05-26T21:47:44.987Z,16.80
2019-05-26T21:50:15.403Z,16.80
2019-05-26T21:52:44.688Z,16.70
2019-05-26T21:55:14.939Z,16.80
2019-05-26T21:57:44.552Z,16.60
2019-05-26T22:00:17.003Z,16.70
2019-05-26T22:02:46.669Z,16.60
2019-05-26T22:05:20.641Z,16.60
2019-05-26T22:07:49.944Z,16.50
2019-05-26T22:10:19.330Z,16.60
2019-05-26T22:12:48.610Z,16.50
2019-05-26T22:15:18.133Z,16.50
2019-05-26T22:17:47.755Z,16.50
2019-05-26T22:20:17.400Z,16.50
2019-05-26T22:22:49.525Z,16.50
2019-05-26T22:25:18.920Z,16.50
2019-05-26T22:27:48.556Z,16.50
2019-05-26T22:30:17.996Z,16.50
2019-05-26T22:32:47.295Z,16.50
2019-05-26T22:35:16.600Z,16.50
2019-05-26T22:37:45.897Z,16.50
2019-05-26T22:40:17.083Z,16.50
2019-05-26T22:42:46.388Z,16.40
2019-05-26T22:45:16.421Z,16.40
2019-05-26T22:47:45.726Z,16.40
2019-05-26T22:50:15.977Z,16.50
2019-05-26T22:52:45.265Z,16.30
2019-05-26T22:55:14.636Z,16.40
2019-05-26T22:57:43.936Z,16.40
2019-05-26T23:00:14.354Z,16.40
2019-05-26T23:02:43.963Z,16.40
2019-05-26T23:05:14.316Z,16.40
2019-05-26T23:07:43.608Z,16.30
2019-05-26T23:10:13.718Z,16.20
2019-05-26T23:12:43.014Z,16.00
2019-05-26T23:15:12.958Z,15.90
2019-05-26T23:17:42.540Z,15.90
2019-05-26T23:20:12.219Z,15.90
2019-05-26T23:22:41.862Z,15.80
2019-05-26T23:25:11.673Z,15.80
2019-05-26T23:27:40.990Z,15.80
2019-05-26T23:30:11.235Z,15.90
2019-05-26T23:32:40.536Z,15.90
2019-05-26T23:35:10.475Z,15.90
2019-05-26T23:37:39.759Z,15.90
2019-05-26T23:40:10.071Z,16.00
2019-05-26T23:42:42.078Z,15.90
2019-05-26T23:45:11.445Z,16.00
2019-05-26T23:47:40.733Z,16.00
2019-05-26T23:50:10.673Z,15.90
2019-05-26T23:52:40.006Z,15.80
2019-05-26T23:55:10.932Z,15.80
2019-05-26T23:57:40.257Z,15.70
